Terminal Aerodrome Forecast
Issued by NWS Des Moines, IA

Home | Current Version | Previous Version | Text Only | Print | Product List | Glossary On
Versions: 1 2 3 4 5 6 7 8 9 10 11 12 13 14 15 16 17 18
000
FTUS43 KDMX 180320 AAB
TAFALO
TAF AMD
KALO 180320Z 1803/1824 30004KT 5SM BR BKN014
     FM181400 21006KT 5SM BR SCT005 BKN025
     FM181600 22011KT P6SM SCT030 BKN250=

USA.gov is the U.S. government's official web portal to all federal, state and local government web resources and services.